Las Coloradas, Argentina
Current Conditions -  °F | °C
As of 12:00 AM on Tuesday 23 Dec 2014 (Local Time) from SAZS Reporting Station
Clear Clear  
Wind Chill: 38°   Ceiling: Unl
Heat Index: 46°   Visibility: 6mi
Dew Point: 37°   Wind: 24mph
Humidity: 71%   Direction: 290°WNW
Pressure: 30.15"   Gusts: NA
Location:  39.55°S, 70.58°W
Report Text: SAZS 230300Z 29021KT CAVOK 08/03 Q1021
Loading
Personal Weather Stations






























Interactive Weather Map New forecast layout! Learn more

10-Day Weather Forecast

Advertisements
Track Severe Weather on mobile